Terminal Aerodrome Forecast
Issued by NWS

Home | Current Version | Previous Version | Text Only | Print | Product List | Glossary On
Versions: 1 2 3 4 5 6 7 8 9 10 11 12 13 14
396
FTPA31 PHFO 052324
TAFHMK
TAF
PHMK 052324Z 0600/0624 16010KT P6SM SCT035 BKN060
     FM060300 11006KT P6SM SCT025 BKN060
     FM060600 VRB05KT P6SM SCT025 BKN060
     FM062000 27005KT P6SM VCSH SCT025 BKN060=

USA.gov is the U.S. government's official web portal to all federal, state and local government web resources and services.